sensor_id;sensor_type;location;lat;lon;timestamp;P1;durP1;ratioP1;P2;durP2;ratioP2
15913;SDS011;8055;51.930;8.840;2023-03-01T00:01:35;14.65;;;7.72;;
15913;SDS011;8055;51.930;8.840;2023-03-01T00:04:00;11.52;;;7.07;;
15913;SDS011;8055;51.930;8.840;2023-03-01T00:06:26;12.82;;;7.70;;
15913;SDS011;8055;51.930;8.840;2023-03-01T00:08:52;10.70;;;6.45;;
15913;SDS011;8055;51.930;8.840;2023-03-01T00:11:22;10.10;;;7.25;;
15913;SDS011;8055;51.930;8.840;2023-03-01T00:13:50;13.52;;;7.82;;
15913;SDS011;8055;51.930;8.840;2023-03-01T00:16:18;9.60;;;6.30;;
15913;SDS011;8055;51.930;8.840;2023-03-01T00:18:49;11.23;;;6.57;;
15913;SDS011;8055;51.930;8.840;2023-03-01T00:21:15;12.18;;;6.85;;
15913;SDS011;8055;51.930;8.840;2023-03-01T00:23:41;10.77;;;6.72;;
15913;SDS011;8055;51.930;8.840;2023-03-01T00:26:08;13.20;;;7.00;;
15913;SDS011;8055;51.930;8.840;2023-03-01T00:28:35;9.60;;;6.20;;
15913;SDS011;8055;51.930;8.840;2023-03-01T00:31:10;11.60;;;6.40;;
15913;SDS011;8055;51.930;8.840;2023-03-01T00:33:40;15.88;;;7.97;;
15913;SDS011;8055;51.930;8.840;2023-03-01T00:36:06;9.95;;;6.82;;
15913;SDS011;8055;51.930;8.840;2023-03-01T00:38:36;13.98;;;6.55;;
15913;SDS011;8055;51.930;8.840;2023-03-01T00:41:03;9.75;;;6.85;;
15913;SDS011;8055;51.930;8.840;2023-03-01T00:43:33;13.15;;;7.18;;
15913;SDS011;8055;51.930;8.840;2023-03-01T00:46:04;11.32;;;7.00;;
15913;SDS011;8055;51.930;8.840;2023-03-01T00:48:32;12.02;;;7.30;;
15913;SDS011;8055;51.930;8.840;2023-03-01T00:51:04;11.68;;;7.07;;
15913;SDS011;8055;51.930;8.840;2023-03-01T00:53:33;11.00;;;6.70;;
15913;SDS011;8055;51.930;8.840;2023-03-01T00:55:59;10.90;;;6.85;;
15913;SDS011;8055;51.930;8.840;2023-03-01T00:58:25;10.50;;;6.45;;
15913;SDS011;8055;51.930;8.840;2023-03-01T01:00:50;12.23;;;7.07;;
15913;SDS011;8055;51.930;8.840;2023-03-01T01:03:17;10.50;;;6.45;;
15913;SDS011;8055;51.930;8.840;2023-03-01T01:05:43;12.10;;;6.60;;
15913;SDS011;8055;51.930;8.840;2023-03-01T01:08:08;14.85;;;7.82;;
15913;SDS011;8055;51.930;8.840;2023-03-01T01:10:34;16.00;;;8.30;;
15913;SDS011;8055;51.930;8.840;2023-03-01T01:12:59;13.43;;;7.72;;
15913;SDS011;8055;51.930;8.840;2023-03-01T01:15:25;14.85;;;8.88;;
15913;SDS011;8055;51.930;8.840;2023-03-01T01:17:51;17.98;;;9.70;;
15913;SDS011;8055;51.930;8.840;2023-03-01T01:20:16;12.48;;;7.55;;
15913;SDS011;8055;51.930;8.840;2023-03-01T01:22:42;14.38;;;7.90;;
15913;SDS011;8055;51.930;8.840;2023-03-01T01:25:07;19.85;;;8.15;;
15913;SDS011;8055;51.930;8.840;2023-03-01T01:27:33;13.52;;;8.05;;
15913;SDS011;8055;51.930;8.840;2023-03-01T01:29:58;19.63;;;9.25;;
15913;SDS011;8055;51.930;8.840;2023-03-01T01:32:28;12.98;;;7.40;;
15913;SDS011;8055;51.930;8.840;2023-03-01T01:34:53;14.55;;;8.10;;
15913;SDS011;8055;51.930;8.840;2023-03-01T01:37:18;15.55;;;8.43;;
15913;SDS011;8055;51.930;8.840;2023-03-01T01:39:44;13.57;;;8.13;;
15913;SDS011;8055;51.930;8.840;2023-03-01T01:42:16;14.38;;;8.43;;
15913;SDS011;8055;51.930;8.840;2023-03-01T01:44:46;12.95;;;7.18;;
15913;SDS011;8055;51.930;8.840;2023-03-01T01:47:13;12.00;;;7.28;;
15913;SDS011;8055;51.930;8.840;2023-03-01T01:49:52;12.18;;;7.28;;
15913;SDS011;8055;51.930;8.840;2023-03-01T01:52:27;18.48;;;7.80;;
15913;SDS011;8055;51.930;8.840;2023-03-01T01:55:03;16.23;;;8.18;;
15913;SDS011;8055;51.930;8.840;2023-03-01T01:57:34;15.45;;;7.55;;
15913;SDS011;8055;51.930;8.840;2023-03-01T02:00:03;16.67;;;7.35;;
15913;SDS011;8055;51.930;8.840;2023-03-01T02:02:31;15.55;;;8.02;;
15913;SDS011;8055;51.930;8.840;2023-03-01T02:05:08;12.73;;;7.75;;
15913;SDS011;8055;51.930;8.840;2023-03-01T02:07:38;13.75;;;7.68;;
15913;SDS011;8055;51.930;8.840;2023-03-01T02:10:05;12.20;;;7.85;;
15913;SDS011;8055;51.930;8.840;2023-03-01T02:12:31;14.60;;;8.00;;
15913;SDS011;8055;51.930;8.840;2023-03-01T02:14:57;16.27;;;8.18;;
15913;SDS011;8055;51.930;8.840;2023-03-01T02:17:22;15.13;;;8.20;;
15913;SDS011;8055;51.930;8.840;2023-03-01T02:22:37;12.27;;;7.00;;
15913;SDS011;8055;51.930;8.840;2023-03-01T02:30:33;11.65;;;7.00;;
15913;SDS011;8055;51.930;8.840;2023-03-01T02:32:59;12.93;;;8.07;;
15913;SDS011;8055;51.930;8.840;2023-03-01T02:35:33;12.27;;;7.80;;
15913;SDS011;8055;51.930;8.840;2023-03-01T02:38:02;17.05;;;8.07;;
15913;SDS011;8055;51.930;8.840;2023-03-01T02:40:29;14.38;;;8.73;;
15913;SDS011;8055;51.930;8.840;2023-03-01T02:42:57;16.75;;;8.25;;
15913;SDS011;8055;51.930;8.840;2023-03-01T02:45:24;12.82;;;7.43;;
15913;SDS011;8055;51.930;8.840;2023-03-01T02:47:53;13.52;;;7.72;;
15913;SDS011;8055;51.930;8.840;2023-03-01T02:55:40;13.32;;;7.65;;
15913;SDS011;8055;51.930;8.840;2023-03-01T02:58:06;11.85;;;7.10;;
15913;SDS011;8055;51.930;8.840;2023-03-01T03:00:36;13.10;;;7.22;;
15913;SDS011;8055;51.930;8.840;2023-03-01T03:03:15;11.18;;;7.00;;
15913;SDS011;8055;51.930;8.840;2023-03-01T03:05:42;10.80;;;6.93;;
15913;SDS011;8055;51.930;8.840;2023-03-01T03:08:07;10.85;;;7.05;;
15913;SDS011;8055;51.930;8.840;2023-03-01T03:10:34;12.60;;;6.95;;
15913;SDS011;8055;51.930;8.840;2023-03-01T03:13:08;11.40;;;6.57;;
15913;SDS011;8055;51.930;8.840;2023-03-01T03:15:36;11.50;;;7.00;;
15913;SDS011;8055;51.930;8.840;2023-03-01T03:18:04;11.85;;;6.38;;
15913;SDS011;8055;51.930;8.840;2023-03-01T03:20:31;12.90;;;7.22;;
15913;SDS011;8055;51.930;8.840;2023-03-01T03:22:58;12.70;;;6.85;;
15913;SDS011;8055;51.930;8.840;2023-03-01T03:25:24;11.27;;;6.40;;
15913;SDS011;8055;51.930;8.840;2023-03-01T03:27:51;11.07;;;6.50;;
15913;SDS011;8055;51.930;8.840;2023-03-01T03:30:21;10.77;;;6.45;;
15913;SDS011;8055;51.930;8.840;2023-03-01T03:32:49;10.57;;;6.90;;
15913;SDS011;8055;51.930;8.840;2023-03-01T03:35:21;12.75;;;6.93;;
15913;SDS011;8055;51.930;8.840;2023-03-01T03:37:55;10.80;;;6.80;;
15913;SDS011;8055;51.930;8.840;2023-03-01T03:40:31;10.02;;;6.53;;
15913;SDS011;8055;51.930;8.840;2023-03-01T03:42:59;12.45;;;7.55;;
15913;SDS011;8055;51.930;8.840;2023-03-01T03:45:25;11.90;;;7.70;;
15913;SDS011;8055;51.930;8.840;2023-03-01T03:47:51;11.38;;;6.63;;
15913;SDS011;8055;51.930;8.840;2023-03-01T03:50:16;10.98;;;6.63;;
15913;SDS011;8055;51.930;8.840;2023-03-01T03:52:42;12.85;;;7.57;;
15913;SDS011;8055;51.930;8.840;2023-03-01T03:55:09;11.63;;;7.55;;
15913;SDS011;8055;51.930;8.840;2023-03-01T03:57:42;14.85;;;7.75;;
15913;SDS011;8055;51.930;8.840;2023-03-01T04:00:09;10.43;;;6.78;;
15913;SDS011;8055;51.930;8.840;2023-03-01T04:02:40;11.48;;;7.03;;
15913;SDS011;8055;51.930;8.840;2023-03-01T04:05:06;11.43;;;6.78;;
15913;SDS011;8055;51.930;8.840;2023-03-01T04:07:33;13.60;;;6.60;;
15913;SDS011;8055;51.930;8.840;2023-03-01T04:09:59;12.73;;;6.63;;
15913;SDS011;8055;51.930;8.840;2023-03-01T04:12:25;10.80;;;7.43;;
15913;SDS011;8055;51.930;8.840;2023-03-01T04:14:50;11.02;;;6.60;;
15913;SDS011;8055;51.930;8.840;2023-03-01T04:17:16;12.52;;;7.32;;
15913;SDS011;8055;51.930;8.840;2023-03-01T04:19:41;9.63;;;6.32;;
15913;SDS011;8055;51.930;8.840;2023-03-01T04:22:09;12.45;;;7.47;;
15913;SDS011;8055;51.930;8.840;2023-03-01T04:24:38;12.55;;;7.47;;
15913;SDS011;8055;51.930;8.840;2023-03-01T04:27:03;11.32;;;6.97;;
15913;SDS011;8055;51.930;8.840;2023-03-01T04:29:29;14.95;;;7.80;;
15913;SDS011;8055;51.930;8.840;2023-03-01T04:31:54;11.27;;;7.03;;
15913;SDS011;8055;51.930;8.840;2023-03-01T04:34:20;11.88;;;6.90;;
15913;SDS011;8055;51.930;8.840;2023-03-01T04:36:45;13.80;;;7.85;;
15913;SDS011;8055;51.930;8.840;2023-03-01T04:39:10;11.73;;;6.82;;
15913;SDS011;8055;51.930;8.840;2023-03-01T04:41:39;11.63;;;7.43;;
15913;SDS011;8055;51.930;8.840;2023-03-01T04:44:05;16.42;;;8.65;;
15913;SDS011;8055;51.930;8.840;2023-03-01T04:46:31;12.32;;;7.63;;
15913;SDS011;8055;51.930;8.840;2023-03-01T04:48:56;13.80;;;7.88;;
15913;SDS011;8055;51.930;8.840;2023-03-01T04:51:22;13.50;;;7.82;;
15913;SDS011;8055;51.930;8.840;2023-03-01T04:53:47;15.60;;;8.30;;
15913;SDS011;8055;51.930;8.840;2023-03-01T04:56:13;13.27;;;7.95;;
15913;SDS011;8055;51.930;8.840;2023-03-01T04:58:38;18.58;;;9.52;;
15913;SDS011;8055;51.930;8.840;2023-03-01T05:01:08;17.48;;;8.85;;
15913;SDS011;8055;51.930;8.840;2023-03-01T05:03:43;22.25;;;10.77;;
15913;SDS011;8055;51.930;8.840;2023-03-01T05:06:11;22.65;;;11.55;;
15913;SDS011;8055;51.930;8.840;2023-03-01T05:08:37;22.80;;;12.00;;
15913;SDS011;8055;51.930;8.840;2023-03-01T05:11:04;26.55;;;13.15;;
15913;SDS011;8055;51.930;8.840;2023-03-01T05:13:30;25.83;;;12.63;;
15913;SDS011;8055;51.930;8.840;2023-03-01T05:18:26;25.25;;;12.05;;
15913;SDS011;8055;51.930;8.840;2023-03-01T05:20:53;27.63;;;12.80;;
15913;SDS011;8055;51.930;8.840;2023-03-01T05:23:21;27.60;;;14.57;;
15913;SDS011;8055;51.930;8.840;2023-03-01T05:25:47;29.15;;;14.20;;
15913;SDS011;8055;51.930;8.840;2023-03-01T05:28:14;23.90;;;13.10;;
15913;SDS011;8055;51.930;8.840;2023-03-01T05:30:39;24.77;;;12.80;;
15913;SDS011;8055;51.930;8.840;2023-03-01T05:33:05;26.08;;;13.00;;
15913;SDS011;8055;51.930;8.840;2023-03-01T05:35:38;23.05;;;12.52;;
15913;SDS011;8055;51.930;8.840;2023-03-01T05:38:06;22.55;;;12.68;;
15913;SDS011;8055;51.930;8.840;2023-03-01T05:40:32;21.52;;;12.30;;
15913;SDS011;8055;51.930;8.840;2023-03-01T05:42:58;21.40;;;11.48;;
15913;SDS011;8055;51.930;8.840;2023-03-01T05:45:24;21.10;;;11.40;;
15913;SDS011;8055;51.930;8.840;2023-03-01T05:47:52;24.92;;;12.60;;
15913;SDS011;8055;51.930;8.840;2023-03-01T05:50:21;23.00;;;12.05;;
15913;SDS011;8055;51.930;8.840;2023-03-01T05:52:52;21.13;;;11.15;;
15913;SDS011;8055;51.930;8.840;2023-03-01T05:55:33;24.90;;;12.13;;
15913;SDS011;8055;51.930;8.840;2023-03-01T05:58:00;22.92;;;11.32;;
15913;SDS011;8055;51.930;8.840;2023-03-01T06:00:27;20.42;;;11.20;;
15913;SDS011;8055;51.930;8.840;2023-03-01T06:02:54;18.08;;;10.88;;
15913;SDS011;8055;51.930;8.840;2023-03-01T06:05:20;20.73;;;11.43;;
15913;SDS011;8055;51.930;8.840;2023-03-01T06:07:47;22.52;;;11.68;;
15913;SDS011;8055;51.930;8.840;2023-03-01T06:10:12;21.52;;;11.15;;
15913;SDS011;8055;51.930;8.840;2023-03-01T06:12:39;17.98;;;10.73;;
15913;SDS011;8055;51.930;8.840;2023-03-01T06:15:06;23.77;;;11.82;;
15913;SDS011;8055;51.930;8.840;2023-03-01T06:17:35;18.23;;;10.07;;
15913;SDS011;8055;51.930;8.840;2023-03-01T06:20:06;17.55;;;9.75;;
15913;SDS011;8055;51.930;8.840;2023-03-01T06:24:59;16.65;;;9.85;;
15913;SDS011;8055;51.930;8.840;2023-03-01T06:27:25;21.27;;;10.50;;
15913;SDS011;8055;51.930;8.840;2023-03-01T06:29:50;17.48;;;9.75;;
15913;SDS011;8055;51.930;8.840;2023-03-01T06:32:15;17.33;;;10.07;;
15913;SDS011;8055;51.930;8.840;2023-03-01T06:34:41;14.57;;;9.15;;
15913;SDS011;8055;51.930;8.840;2023-03-01T06:37:07;18.02;;;10.18;;
15913;SDS011;8055;51.930;8.840;2023-03-01T06:39:32;20.15;;;11.00;;
15913;SDS011;8055;51.930;8.840;2023-03-01T06:41:58;16.35;;;9.65;;
15913;SDS011;8055;51.930;8.840;2023-03-01T06:44:24;19.05;;;9.60;;
15913;SDS011;8055;51.930;8.840;2023-03-01T06:46:50;16.17;;;9.30;;
15913;SDS011;8055;51.930;8.840;2023-03-01T06:49:15;21.15;;;11.77;;
15913;SDS011;8055;51.930;8.840;2023-03-01T06:51:42;20.08;;;10.23;;
15913;SDS011;8055;51.930;8.840;2023-03-01T06:54:08;16.90;;;10.32;;
15913;SDS011;8055;51.930;8.840;2023-03-01T06:56:33;17.90;;;10.75;;
15913;SDS011;8055;51.930;8.840;2023-03-01T06:58:59;20.60;;;10.15;;
15913;SDS011;8055;51.930;8.840;2023-03-01T07:01:24;15.75;;;8.73;;
15913;SDS011;8055;51.930;8.840;2023-03-01T07:03:49;15.50;;;9.18;;
15913;SDS011;8055;51.930;8.840;2023-03-01T07:06:15;14.85;;;9.00;;
15913;SDS011;8055;51.930;8.840;2023-03-01T07:08:40;17.60;;;9.80;;
15913;SDS011;8055;51.930;8.840;2023-03-01T07:11:06;14.05;;;8.77;;
15913;SDS011;8055;51.930;8.840;2023-03-01T07:13:32;18.67;;;9.35;;
15913;SDS011;8055;51.930;8.840;2023-03-01T07:15:57;16.50;;;9.45;;
15913;SDS011;8055;51.930;8.840;2023-03-01T07:18:23;21.50;;;10.75;;
15913;SDS011;8055;51.930;8.840;2023-03-01T07:20:48;21.20;;;10.57;;
15913;SDS011;8055;51.930;8.840;2023-03-01T07:23:14;23.50;;;12.35;;
15913;SDS011;8055;51.930;8.840;2023-03-01T07:25:40;31.55;;;15.10;;
15913;SDS011;8055;51.930;8.840;2023-03-01T07:28:05;29.10;;;15.27;;
15913;SDS011;8055;51.930;8.840;2023-03-01T07:30:31;26.80;;;15.05;;
15913;SDS011;8055;51.930;8.840;2023-03-01T07:32:57;27.80;;;14.15;;
15913;SDS011;8055;51.930;8.840;2023-03-01T07:35:23;29.33;;;15.57;;
15913;SDS011;8055;51.930;8.840;2023-03-01T07:37:50;25.42;;;14.63;;
15913;SDS011;8055;51.930;8.840;2023-03-01T07:40:15;30.92;;;15.32;;
15913;SDS011;8055;51.930;8.840;2023-03-01T07:42:41;27.08;;;15.52;;
15913;SDS011;8055;51.930;8.840;2023-03-01T07:45:06;27.73;;;16.50;;
15913;SDS011;8055;51.930;8.840;2023-03-01T07:47:32;28.77;;;17.38;;
15913;SDS011;8055;51.930;8.840;2023-03-01T07:49:58;32.80;;;17.65;;
15913;SDS011;8055;51.930;8.840;2023-03-01T07:52:23;36.10;;;17.92;;
15913;SDS011;8055;51.930;8.840;2023-03-01T07:54:49;31.77;;;16.88;;
15913;SDS011;8055;51.930;8.840;2023-03-01T07:57:14;30.75;;;16.17;;
15913;SDS011;8055;51.930;8.840;2023-03-01T07:59:39;28.08;;;15.50;;
15913;SDS011;8055;51.930;8.840;2023-03-01T08:02:05;23.77;;;13.90;;
15913;SDS011;8055;51.930;8.840;2023-03-01T08:04:31;23.17;;;12.88;;
15913;SDS011;8055;51.930;8.840;2023-03-01T08:06:57;22.05;;;12.18;;
15913;SDS011;8055;51.930;8.840;2023-03-01T08:09:23;21.88;;;12.10;;
15913;SDS011;8055;51.930;8.840;2023-03-01T08:11:49;22.10;;;11.63;;
15913;SDS011;8055;51.930;8.840;2023-03-01T08:14:14;22.70;;;12.65;;
15913;SDS011;8055;51.930;8.840;2023-03-01T08:16:40;20.80;;;13.02;;
15913;SDS011;8055;51.930;8.840;2023-03-01T08:19:06;20.73;;;11.52;;
15913;SDS011;8055;51.930;8.840;2023-03-01T08:21:33;18.58;;;11.35;;
15913;SDS011;8055;51.930;8.840;2023-03-01T08:24:05;20.17;;;11.60;;
15913;SDS011;8055;51.930;8.840;2023-03-01T08:26:31;20.83;;;12.07;;
15913;SDS011;8055;51.930;8.840;2023-03-01T08:28:58;18.83;;;11.10;;
15913;SDS011;8055;51.930;8.840;2023-03-01T08:31:29;23.05;;;12.25;;
15913;SDS011;8055;51.930;8.840;2023-03-01T08:33:58;21.38;;;11.82;;
15913;SDS011;8055;51.930;8.840;2023-03-01T08:36:25;19.80;;;11.90;;
15913;SDS011;8055;51.930;8.840;2023-03-01T08:38:52;18.38;;;11.70;;
15913;SDS011;8055;51.930;8.840;2023-03-01T08:41:18;22.77;;;12.25;;
15913;SDS011;8055;51.930;8.840;2023-03-01T08:43:44;21.10;;;11.90;;
15913;SDS011;8055;51.930;8.840;2023-03-01T08:46:10;17.27;;;11.50;;
15913;SDS011;8055;51.930;8.840;2023-03-01T08:48:35;21.00;;;11.43;;
15913;SDS011;8055;51.930;8.840;2023-03-01T08:51:07;18.23;;;11.50;;
15913;SDS011;8055;51.930;8.840;2023-03-01T08:53:43;19.70;;;12.88;;
15913;SDS011;8055;51.930;8.840;2023-03-01T08:56:09;20.38;;;12.55;;
15913;SDS011;8055;51.930;8.840;2023-03-01T08:58:35;21.52;;;11.73;;
15913;SDS011;8055;51.930;8.840;2023-03-01T09:01:06;19.75;;;11.52;;
15913;SDS011;8055;51.930;8.840;2023-03-01T09:03:33;22.52;;;12.15;;
15913;SDS011;8055;51.930;8.840;2023-03-01T09:06:02;18.55;;;11.45;;
15913;SDS011;8055;51.930;8.840;2023-03-01T09:08:29;22.40;;;11.18;;
15913;SDS011;8055;51.930;8.840;2023-03-01T09:10:55;22.00;;;11.43;;
15913;SDS011;8055;51.930;8.840;2023-03-01T09:13:20;19.42;;;11.95;;
15913;SDS011;8055;51.930;8.840;2023-03-01T09:15:46;19.73;;;11.80;;
15913;SDS011;8055;51.930;8.840;2023-03-01T09:18:11;17.40;;;10.93;;
15913;SDS011;8055;51.930;8.840;2023-03-01T09:20:36;16.50;;;10.50;;
15913;SDS011;8055;51.930;8.840;2023-03-01T09:23:02;16.00;;;9.32;;
15913;SDS011;8055;51.930;8.840;2023-03-01T09:25:27;19.30;;;9.70;;
15913;SDS011;8055;51.930;8.840;2023-03-01T09:27:53;15.75;;;9.68;;
15913;SDS011;8055;51.930;8.840;2023-03-01T09:30:20;17.70;;;10.05;;
15913;SDS011;8055;51.930;8.840;2023-03-01T09:32:47;14.50;;;9.93;;
15913;SDS011;8055;51.930;8.840;2023-03-01T09:35:13;15.07;;;9.50;;
15913;SDS011;8055;51.930;8.840;2023-03-01T09:37:38;17.45;;;9.40;;
15913;SDS011;8055;51.930;8.840;2023-03-01T09:40:17;15.23;;;8.38;;
15913;SDS011;8055;51.930;8.840;2023-03-01T09:42:46;22.30;;;9.05;;
15913;SDS011;8055;51.930;8.840;2023-03-01T09:47:58;14.18;;;8.40;;
15913;SDS011;8055;51.930;8.840;2023-03-01T09:50:26;13.98;;;7.70;;
15913;SDS011;8055;51.930;8.840;2023-03-01T09:53:03;13.88;;;8.20;;
15913;SDS011;8055;51.930;8.840;2023-03-01T09:55:43;13.05;;;7.93;;
15913;SDS011;8055;51.930;8.840;2023-03-01T10:07:15;15.38;;;8.13;;
15913;SDS011;8055;51.930;8.840;2023-03-01T10:09:37;11.75;;;7.53;;
15913;SDS011;8055;51.930;8.840;2023-03-01T10:12:08;12.70;;;6.65;;
15913;SDS011;8055;51.930;8.840;2023-03-01T10:22:49;12.98;;;6.75;;
15913;SDS011;8055;51.930;8.840;2023-03-01T10:28:17;12.55;;;7.00;;
15913;SDS011;8055;51.930;8.840;2023-03-01T10:30:49;12.32;;;7.30;;
15913;SDS011;8055;51.930;8.840;2023-03-01T10:33:23;10.60;;;6.75;;
15913;SDS011;8055;51.930;8.840;2023-03-01T10:35:51;11.95;;;7.25;;
15913;SDS011;8055;51.930;8.840;2023-03-01T10:38:17;12.77;;;7.03;;
15913;SDS011;8055;51.930;8.840;2023-03-01T10:43:24;13.95;;;7.50;;
15913;SDS011;8055;51.930;8.840;2023-03-01T10:45:51;11.02;;;6.93;;
15913;SDS011;8055;51.930;8.840;2023-03-01T10:48:21;15.88;;;7.03;;
15913;SDS011;8055;51.930;8.840;2023-03-01T10:51:04;12.45;;;6.72;;
15913;SDS011;8055;51.930;8.840;2023-03-01T10:56:03;9.73;;;6.38;;
15913;SDS011;8055;51.930;8.840;2023-03-01T10:58:32;10.93;;;6.63;;
15913;SDS011;8055;51.930;8.840;2023-03-01T11:01:06;10.48;;;6.93;;
15913;SDS011;8055;51.930;8.840;2023-03-01T11:03:40;10.02;;;6.28;;
15913;SDS011;8055;51.930;8.840;2023-03-01T11:08:41;13.20;;;6.85;;
15913;SDS011;8055;51.930;8.840;2023-03-01T11:11:26;11.15;;;6.25;;
15913;SDS011;8055;51.930;8.840;2023-03-01T11:16:45;14.80;;;7.03;;
15913;SDS011;8055;51.930;8.840;2023-03-01T11:19:15;12.90;;;6.53;;
15913;SDS011;8055;51.930;8.840;2023-03-01T11:21:49;10.15;;;6.35;;
15913;SDS011;8055;51.930;8.840;2023-03-01T11:24:46;9.73;;;6.53;;
15913;SDS011;8055;51.930;8.840;2023-03-01T11:27:27;10.45;;;6.03;;
15913;SDS011;8055;51.930;8.840;2023-03-01T11:32:47;10.68;;;6.63;;
15913;SDS011;8055;51.930;8.840;2023-03-01T11:35:30;10.48;;;6.55;;
15913;SDS011;8055;51.930;8.840;2023-03-01T11:40:31;11.05;;;6.13;;
15913;SDS011;8055;51.930;8.840;2023-03-01T11:48:52;9.63;;;5.57;;
15913;SDS011;8055;51.930;8.840;2023-03-01T11:54:24;9.77;;;6.03;;
15913;SDS011;8055;51.930;8.840;2023-03-01T11:57:18;16.67;;;6.20;;
15913;SDS011;8055;51.930;8.840;2023-03-01T12:08:07;10.45;;;6.35;;
15913;SDS011;8055;51.930;8.840;2023-03-01T12:10:52;13.82;;;6.60;;
15913;SDS011;8055;51.930;8.840;2023-03-01T12:22:09;10.82;;;6.43;;
15913;SDS011;8055;51.930;8.840;2023-03-01T12:38:45;11.00;;;6.20;;
15913;SDS011;8055;51.930;8.840;2023-03-01T12:44:07;9.60;;;5.65;;
15913;SDS011;8055;51.930;8.840;2023-03-01T12:49:31;8.13;;;5.28;;
15913;SDS011;8055;51.930;8.840;2023-03-01T12:52:16;9.43;;;5.25;;
15913;SDS011;8055;51.930;8.840;2023-03-01T12:54:51;9.80;;;5.70;;
15913;SDS011;8055;51.930;8.840;2023-03-01T12:57:29;10.50;;;6.07;;
15913;SDS011;8055;51.930;8.840;2023-03-01T13:00:21;12.00;;;5.20;;
15913;SDS011;8055;51.930;8.840;2023-03-01T13:08:29;7.75;;;5.00;;
15913;SDS011;8055;51.930;8.840;2023-03-01T13:11:11;9.70;;;5.75;;
15913;SDS011;8055;51.930;8.840;2023-03-01T13:13:44;9.77;;;5.72;;
15913;SDS011;8055;51.930;8.840;2023-03-01T13:16:22;9.52;;;5.90;;
15913;SDS011;8055;51.930;8.840;2023-03-01T13:19:05;7.93;;;5.38;;
15913;SDS011;8055;51.930;8.840;2023-03-01T13:21:37;8.48;;;6.13;;
15913;SDS011;8055;51.930;8.840;2023-03-01T13:24:03;11.25;;;6.20;;
15913;SDS011;8055;51.930;8.840;2023-03-01T13:26:28;11.40;;;6.32;;
15913;SDS011;8055;51.930;8.840;2023-03-01T13:28:54;9.40;;;6.07;;
15913;SDS011;8055;51.930;8.840;2023-03-01T13:33:51;8.68;;;5.60;;
15913;SDS011;8055;51.930;8.840;2023-03-01T13:38:55;11.23;;;6.43;;
15913;SDS011;8055;51.930;8.840;2023-03-01T13:46:47;9.60;;;6.38;;
15913;SDS011;8055;51.930;8.840;2023-03-01T13:49:14;12.80;;;6.30;;
15913;SDS011;8055;51.930;8.840;2023-03-01T13:51:45;9.23;;;6.13;;
15913;SDS011;8055;51.930;8.840;2023-03-01T13:54:12;12.60;;;7.07;;
15913;SDS011;8055;51.930;8.840;2023-03-01T13:56:40;10.82;;;6.70;;
15913;SDS011;8055;51.930;8.840;2023-03-01T13:59:06;9.95;;;6.22;;
15913;SDS011;8055;51.930;8.840;2023-03-01T14:01:37;15.27;;;7.13;;
15913;SDS011;8055;51.930;8.840;2023-03-01T14:04:03;8.82;;;6.38;;
15913;SDS011;8055;51.930;8.840;2023-03-01T14:06:52;13.20;;;6.75;;
15913;SDS011;8055;51.930;8.840;2023-03-01T14:09:52;10.70;;;6.45;;
15913;SDS011;8055;51.930;8.840;2023-03-01T14:14:57;11.73;;;6.20;;
15913;SDS011;8055;51.930;8.840;2023-03-01T14:22:44;14.25;;;7.45;;
15913;SDS011;8055;51.930;8.840;2023-03-01T14:25:19;11.63;;;7.40;;
15913;SDS011;8055;51.930;8.840;2023-03-01T14:27:45;11.13;;;7.03;;
15913;SDS011;8055;51.930;8.840;2023-03-01T14:30:19;11.15;;;6.45;;
15913;SDS011;8055;51.930;8.840;2023-03-01T14:33:17;13.18;;;7.45;;
15913;SDS011;8055;51.930;8.840;2023-03-01T14:36:09;11.07;;;6.53;;
15913;SDS011;8055;51.930;8.840;2023-03-01T14:41:11;11.10;;;6.90;;
15913;SDS011;8055;51.930;8.840;2023-03-01T14:43:57;10.00;;;6.82;;
15913;SDS011;8055;51.930;8.840;2023-03-01T14:49:21;10.80;;;5.90;;
15913;SDS011;8055;51.930;8.840;2023-03-01T14:54:39;10.75;;;6.65;;
15913;SDS011;8055;51.930;8.840;2023-03-01T14:57:20;12.98;;;7.10;;
15913;SDS011;8055;51.930;8.840;2023-03-01T14:59:49;14.20;;;6.28;;
15913;SDS011;8055;51.930;8.840;2023-03-01T15:02:18;9.70;;;6.75;;
15913;SDS011;8055;51.930;8.840;2023-03-01T15:04:54;13.48;;;7.28;;
15913;SDS011;8055;51.930;8.840;2023-03-01T15:07:30;10.53;;;6.47;;
15913;SDS011;8055;51.930;8.840;2023-03-01T15:09:59;11.23;;;7.07;;
15913;SDS011;8055;51.930;8.840;2023-03-01T15:12:34;11.52;;;6.72;;
15913;SDS011;8055;51.930;8.840;2023-03-01T15:15:00;9.18;;;5.75;;
15913;SDS011;8055;51.930;8.840;2023-03-01T15:17:43;10.25;;;6.55;;
15913;SDS011;8055;51.930;8.840;2023-03-01T15:20:16;11.73;;;7.03;;
15913;SDS011;8055;51.930;8.840;2023-03-01T15:22:45;11.40;;;6.57;;
15913;SDS011;8055;51.930;8.840;2023-03-01T15:25:16;11.13;;;6.78;;
15913;SDS011;8055;51.930;8.840;2023-03-01T15:27:47;15.40;;;8.23;;
15913;SDS011;8055;51.930;8.840;2023-03-01T15:30:17;14.50;;;7.85;;
15913;SDS011;8055;51.930;8.840;2023-03-01T15:32:46;15.18;;;8.82;;
15913;SDS011;8055;51.930;8.840;2023-03-01T15:37:59;13.43;;;7.82;;
15913;SDS011;8055;51.930;8.840;2023-03-01T15:40:29;20.40;;;11.75;;
15913;SDS011;8055;51.930;8.840;2023-03-01T15:45:27;11.27;;;6.43;;
15913;SDS011;8055;51.930;8.840;2023-03-01T15:47:58;10.60;;;6.07;;
15913;SDS011;8055;51.930;8.840;2023-03-01T15:50:43;10.45;;;6.35;;
15913;SDS011;8055;51.930;8.840;2023-03-01T15:53:11;13.73;;;6.28;;
15913;SDS011;8055;51.930;8.840;2023-03-01T15:55:39;20.10;;;9.35;;
15913;SDS011;8055;51.930;8.840;2023-03-01T15:58:21;30.35;;;14.93;;
15913;SDS011;8055;51.930;8.840;2023-03-01T16:00:48;23.08;;;12.63;;
15913;SDS011;8055;51.930;8.840;2023-03-01T16:03:16;17.80;;;10.60;;
15913;SDS011;8055;51.930;8.840;2023-03-01T16:05:46;12.35;;;7.65;;
15913;SDS011;8055;51.930;8.840;2023-03-01T16:08:12;11.82;;;6.70;;
15913;SDS011;8055;51.930;8.840;2023-03-01T16:10:38;9.48;;;5.95;;
15913;SDS011;8055;51.930;8.840;2023-03-01T16:13:05;10.07;;;5.68;;
15913;SDS011;8055;51.930;8.840;2023-03-01T16:15:32;9.30;;;5.53;;
15913;SDS011;8055;51.930;8.840;2023-03-01T16:17:59;10.35;;;5.63;;
15913;SDS011;8055;51.930;8.840;2023-03-01T16:20:25;9.45;;;5.50;;
15913;SDS011;8055;51.930;8.840;2023-03-01T16:22:50;9.75;;;5.45;;
15913;SDS011;8055;51.930;8.840;2023-03-01T16:25:18;9.80;;;5.40;;
15913;SDS011;8055;51.930;8.840;2023-03-01T16:27:45;10.80;;;5.70;;
15913;SDS011;8055;51.930;8.840;2023-03-01T16:30:13;10.32;;;5.15;;
15913;SDS011;8055;51.930;8.840;2023-03-01T16:32:39;10.43;;;6.40;;
15913;SDS011;8055;51.930;8.840;2023-03-01T16:35:06;10.57;;;6.13;;
15913;SDS011;8055;51.930;8.840;2023-03-01T16:37:34;12.57;;;6.20;;
15913;SDS011;8055;51.930;8.840;2023-03-01T16:40:00;14.10;;;7.03;;
15913;SDS011;8055;51.930;8.840;2023-03-01T16:42:26;8.65;;;5.72;;
15913;SDS011;8055;51.930;8.840;2023-03-01T16:44:54;10.70;;;6.35;;
15913;SDS011;8055;51.930;8.840;2023-03-01T16:47:20;10.95;;;5.60;;
15913;SDS011;8055;51.930;8.840;2023-03-01T16:49:46;10.45;;;5.72;;
15913;SDS011;8055;51.930;8.840;2023-03-01T16:52:11;22.90;;;15.98;;
15913;SDS011;8055;51.930;8.840;2023-03-01T16:54:37;16.13;;;11.10;;
15913;SDS011;8055;51.930;8.840;2023-03-01T16:57:02;30.08;;;24.02;;
15913;SDS011;8055;51.930;8.840;2023-03-01T16:59:28;22.73;;;14.00;;
15913;SDS011;8055;51.930;8.840;2023-03-01T17:01:53;14.63;;;8.70;;
15913;SDS011;8055;51.930;8.840;2023-03-01T17:04:18;13.48;;;7.85;;
15913;SDS011;8055;51.930;8.840;2023-03-01T17:06:44;11.50;;;6.13;;
15913;SDS011;8055;51.930;8.840;2023-03-01T17:09:11;12.98;;;7.10;;
15913;SDS011;8055;51.930;8.840;2023-03-01T17:11:37;8.68;;;5.50;;
15913;SDS011;8055;51.930;8.840;2023-03-01T17:14:02;10.93;;;6.15;;
15913;SDS011;8055;51.930;8.840;2023-03-01T17:16:28;10.70;;;6.82;;